Time;durP1;ratioP1;P1;durP2;ratioP2;P2;SDS_P1;SDS_P2;PMS_P1;PMS_P2;Temp;Humidity;BMP_temperature;BMP_pressure;BME280_temperature;BME280_humidity;BME280_pressure;Samples;Min_cycle;Max_cycle;Signal;HPM_P1;HPM_P2
2021/06/25 00:01:16;;;;;;;30.20;8.48;;;;;;;27.56;52.01;99414.59;5052113;28;20091;-71
2021/06/25 00:03:42;;;;;;;25.73;9.10;;;;;;;27.43;52.32;99407.97;5047070;28;20033;-71
2021/06/25 00:06:08;;;;;;;25.55;7.82;;;;;;;27.46;52.55;99402.13;5050018;28;20021;-70
2021/06/25 00:08:33;;;;;;;34.20;9.15;;;;;;;27.48;52.92;99401.66;5051642;28;20471;-71
2021/06/25 00:10:59;;;;;;;19.95;8.65;;;;;;;27.45;52.95;99411.19;5048991;28;20025;-69
2021/06/25 00:13:25;;;;;;;18.15;8.82;;;;;;;27.56;52.36;99411.72;5050192;28;20025;-69
2021/06/25 00:15:50;;;;;;;26.63;7.85;;;;;;;27.47;52.93;99417.28;5051556;28;20127;-68
2021/06/25 00:18:16;;;;;;;20.88;7.72;;;;;;;27.33;53.12;99416.41;5051413;28;20094;-69
2021/06/25 00:20:41;;;;;;;17.73;7.55;;;;;;;27.18;53.67;99409.47;5046910;28;20420;-69
2021/06/25 00:23:07;;;;;;;26.20;8.32;;;;;;;27.46;53.00;99415.66;5047699;28;20064;-69
2021/06/25 00:25:32;;;;;;;26.95;8.38;;;;;;;27.59;52.74;99412.88;5051412;28;20024;-68
2021/06/25 00:27:59;;;;;;;26.67;8.73;;;;;;;27.46;53.01;99424.28;5047419;28;20135;-69
2021/06/25 00:30:24;;;;;;;24.52;8.18;;;;;;;27.43;52.62;99431.72;5051018;28;20029;-69
2021/06/25 00:32:50;;;;;;;24.63;9.10;;;;;;;27.73;51.53;99423.13;5051104;28;20025;-70
2021/06/25 00:35:16;;;;;;;34.40;8.18;;;;;;;27.33;52.77;99433.63;5051025;28;20095;-69
2021/06/25 00:37:43;;;;;;;31.30;9.00;;;;;;;27.37;52.55;99447.91;5051060;28;20029;-72
2021/06/25 00:40:11;;;;;;;24.92;8.35;;;;;;;26.99;52.72;99443.56;5050999;28;20108;-69
2021/06/25 00:42:37;;;;;;;31.13;9.70;;;;;;;26.91;53.08;99442.16;5050757;28;20037;-69
2021/06/25 00:45:14;;;;;;;27.20;7.82;;;;;;;26.86;53.10;99443.47;5050928;28;20135;-69
2021/06/25 00:47:43;;;;;;;21.52;8.48;;;;;;;26.73;53.36;99443.34;5046183;28;20029;-69
2021/06/25 00:50:09;;;;;;;24.83;9.48;;;;;;;26.51;54.04;99443.06;5046331;28;20037;-71
2021/06/25 00:52:35;;;;;;;21.08;8.38;;;;;;;26.43;54.47;99433.03;5049388;28;20025;-68
2021/06/25 00:55:01;;;;;;;21.17;8.63;;;;;;;26.47;54.38;99436.59;5050855;28;20078;-69
2021/06/25 00:57:29;;;;;;;44.55;10.45;;;;;;;26.39;54.42;99447.44;5050444;28;20499;-69
2021/06/25 00:59:55;;;;;;;22.27;8.75;;;;;;;26.52;54.00;99461.06;5050523;28;20033;-69
2021/06/25 01:02:20;;;;;;;22.13;8.45;;;;;;;26.58;53.69;99456.44;5044872;28;20037;-71
2021/06/25 01:04:49;;;;;;;31.38;9.80;;;;;;;26.49;54.05;99457.84;5040564;28;20508;-68
2021/06/25 01:07:15;;;;;;;25.42;9.50;;;;;;;26.40;54.37;99463.38;5048964;28;20041;-69
2021/06/25 01:09:42;;;;;;;22.58;7.90;;;;;;;26.52;53.61;99467.63;5045916;28;20025;-71
2021/06/25 01:12:08;;;;;;;22.00;8.68;;;;;;;26.49;54.02;99451.31;5044693;28;20059;-71
2021/06/25 01:14:39;;;;;;;23.42;8.88;;;;;;;26.44;54.60;99443.22;5050376;28;20025;-71
2021/06/25 01:17:08;;;;;;;31.10;8.35;;;;;;;26.44;53.99;99449.78;5045731;28;20044;-71
2021/06/25 01:19:34;;;;;;;24.43;7.53;;;;;;;26.27;54.56;99451.00;5048621;28;20045;-71
2021/06/25 01:22:00;;;;;;;20.80;7.65;;;;;;;26.32;54.61;99445.53;5045433;28;20044;-70
2021/06/25 01:24:26;;;;;;;29.75;9.10;;;;;;;26.18;54.80;99440.94;5044335;28;20029;-68
2021/06/25 01:26:51;;;;;;;30.55;9.52;;;;;;;26.20;54.72;99435.59;5050308;28;20118;-71
2021/06/25 01:29:20;;;;;;;28.77;8.82;;;;;;;26.04;55.89;99427.72;5050221;28;20058;-69
2021/06/25 01:31:46;;;;;;;26.75;9.65;;;;;;;26.38;54.74;99430.69;5050054;28;20032;-68
2021/06/25 01:34:12;;;;;;;23.88;9.25;;;;;;;26.44;54.33;99426.03;5050245;28;20025;-69
2021/06/25 01:36:38;;;;;;;27.25;8.77;;;;;;;26.49;54.70;99426.31;5050393;28;20028;-71
2021/06/25 01:39:05;;;;;;;28.88;8.30;;;;;;;26.46;55.08;99429.25;5050138;28;20041;-69
2021/06/25 01:41:40;;;;;;;22.15;8.93;;;;;;;26.52;55.00;99432.41;5050188;28;20029;-68
2021/06/25 01:44:06;;;;;;;28.42;8.98;;;;;;;26.74;54.49;99419.16;5050059;28;20037;-69
2021/06/25 01:46:32;;;;;;;34.28;10.25;;;;;;;26.62;54.73;99417.00;5048898;28;20061;-71
2021/06/25 01:48:58;;;;;;;19.67;8.65;;;;;;;26.65;54.92;99404.63;5048476;28;20422;-71
2021/06/25 01:51:23;;;;;;;22.38;8.25;;;;;;;26.70;54.76;99406.97;5050345;28;20032;-71
2021/06/25 01:53:49;;;;;;;22.95;8.93;;;;;;;26.61;54.72;99401.03;5048568;28;20108;-71
2021/06/25 01:56:14;;;;;;;13.57;8.25;;;;;;;26.51;54.86;99411.53;5050237;28;20033;-71
2021/06/25 01:58:40;;;;;;;19.58;7.70;;;;;;;26.65;54.30;99398.88;5049775;28;20025;-71
2021/06/25 02:01:14;;;;;;;29.52;9.63;;;;;;;26.46;55.29;99395.66;5045259;28;20030;-69
2021/06/25 02:03:40;;;;;;;28.00;9.27;;;;;;;26.47;55.07;99397.28;5044576;28;20072;-69
2021/06/25 02:06:07;;;;;;;20.85;8.60;;;;;;;26.46;54.67;99397.72;5050085;28;20017;-69
2021/06/25 02:08:35;;;;;;;22.15;9.48;;;;;;;26.34;54.83;99391.44;5048492;28;20515;-71
2021/06/25 02:11:01;;;;;;;27.58;9.95;;;;;;;26.20;54.52;99395.47;5048439;28;20027;-71
2021/06/25 02:13:26;;;;;;;39.92;9.18;;;;;;;26.19;54.67;99396.72;5051793;28;20542;-72
2021/06/25 02:15:53;;;;;;;31.30;10.18;;;;;;;26.03;55.23;99385.16;5052324;28;20057;-72
2021/06/25 02:18:19;;;;;;;19.92;8.35;;;;;;;25.85;55.52;99385.56;5053796;28;20111;-72
2021/06/25 02:20:45;;;;;;;30.35;10.32;;;;;;;25.86;55.92;99385.13;5053758;28;20049;-71
2021/06/25 02:23:11;;;;;;;24.23;7.95;;;;;;;25.97;56.15;99386.97;5053481;28;20029;-72
2021/06/25 02:25:36;;;;;;;28.08;10.05;;;;;;;25.91;56.23;99389.53;5053864;28;20079;-71
2021/06/25 02:28:02;;;;;;;20.23;8.82;;;;;;;25.85;56.69;99394.97;5052116;28;20507;-72
2021/06/25 02:30:28;;;;;;;17.23;8.07;;;;;;;25.92;56.62;99402.59;5052174;28;20046;-71
2021/06/25 02:32:53;;;;;;;25.02;9.07;;;;;;;25.84;56.59;99406.88;5052227;28;20032;-72
2021/06/25 02:35:19;;;;;;;23.15;8.10;;;;;;;25.76;55.95;99404.19;5053326;28;20032;-72
2021/06/25 02:37:45;;;;;;;22.95;8.82;;;;;;;25.93;55.49;99401.34;5053334;28;20025;-72
2021/06/25 02:40:12;;;;;;;24.73;9.10;;;;;;;25.62;55.86;99408.13;5053326;28;20096;-72
2021/06/25 02:42:38;;;;;;;29.88;9.57;;;;;;;25.64;56.54;99407.69;5053029;28;20033;-72
2021/06/25 02:45:05;;;;;;;30.92;10.18;;;;;;;25.64;56.88;99404.81;5053146;28;20163;-71
2021/06/25 02:47:32;;;;;;;32.67;9.85;;;;;;;25.65;56.74;99410.09;5053407;28;20055;-69
2021/06/25 02:49:58;;;;;;;28.23;9.27;;;;;;;25.52;57.05;99391.97;5051706;28;20029;-69
2021/06/25 02:52:23;;;;;;;23.50;9.73;;;;;;;25.38;57.59;99399.56;5034407;28;20049;-69
2021/06/25 02:54:49;;;;;;;46.05;10.10;;;;;;;25.37;57.49;99400.81;5045061;28;20021;-71
2021/06/25 02:57:14;;;;;;;34.85;11.25;;;;;;;25.49;57.39;99395.72;5052712;28;20033;-71
2021/06/25 02:59:39;;;;;;;26.48;9.93;;;;;;;25.64;56.93;99397.03;5051615;28;20036;-71
2021/06/25 03:02:08;;;;;;;28.70;10.13;;;;;;;25.81;55.97;99405.69;5052609;28;20502;-69
2021/06/25 03:04:34;;;;;;;26.30;9.23;;;;;;;25.58;56.82;99407.41;5051411;28;20091;-69
2021/06/25 03:06:59;;;;;;;37.60;10.65;;;;;;;25.56;56.54;99414.81;5052542;28;20119;-69
2021/06/25 03:09:25;;;;;;;25.67;10.60;;;;;;;25.85;54.89;99417.06;5052722;28;20017;-69
2021/06/25 03:11:50;;;;;;;31.80;11.93;;;;;;;25.59;55.91;99414.75;5052598;28;20041;-69
2021/06/25 03:14:16;;;;;;;32.50;10.45;;;;;;;25.63;55.63;99418.34;5051352;28;20569;-69
2021/06/25 03:16:41;;;;;;;31.35;9.45;;;;;;;25.47;56.39;99416.16;5051245;28;20025;-69
2021/06/25 03:19:07;;;;;;;28.08;9.85;;;;;;;25.32;57.02;99414.84;5052240;28;20059;-69
2021/06/25 03:21:32;;;;;;;29.48;10.55;;;;;;;25.49;56.68;99410.84;5050233;28;20043;-69
2021/06/25 03:23:58;;;;;;;28.02;8.90;;;;;;;25.24;57.00;99420.69;5051834;28;20033;-71
2021/06/25 03:26:23;;;;;;;23.17;10.07;;;;;;;25.25;57.20;99418.66;5052198;28;20048;-69
2021/06/25 03:28:49;;;;;;;29.15;10.10;;;;;;;25.34;57.23;99418.88;5052406;28;20078;-68
2021/06/25 03:31:14;;;;;;;29.40;11.68;;;;;;;25.40;56.24;99416.31;5047754;28;20041;-68
2021/06/25 03:33:40;;;;;;;27.05;10.30;;;;;;;25.19;56.85;99420.38;5052094;28;20033;-68
2021/06/25 03:36:06;;;;;;;26.20;9.82;;;;;;;25.20;56.79;99413.41;5052468;28;20032;-67
2021/06/25 03:38:32;;;;;;;25.70;9.20;;;;;;;25.15;56.69;99413.94;5051171;28;20036;-71
2021/06/25 03:40:58;;;;;;;26.25;10.57;;;;;;;25.03;56.93;99416.16;5051968;28;20033;-69
2021/06/25 03:43:23;;;;;;;33.55;9.95;;;;;;;25.18;56.89;99427.34;5050657;28;20119;-69
2021/06/25 03:45:49;;;;;;;29.25;8.88;;;;;;;25.11;56.89;99419.72;5050812;28;20120;-69
2021/06/25 03:48:15;;;;;;;33.78;9.32;;;;;;;25.05;56.95;99425.13;5050664;28;20029;-66
2021/06/25 03:50:40;;;;;;;95.15;15.93;;;;;;;25.05;56.48;99427.97;5052017;28;20079;-70
2021/06/25 03:53:06;;;;;;;21.80;9.50;;;;;;;24.76;57.09;99424.78;5051933;28;20029;-68
2021/06/25 03:55:32;;;;;;;37.05;10.20;;;;;;;24.65;57.44;99434.34;5042923;28;20476;-66
2021/06/25 03:57:57;;;;;;;36.78;10.68;;;;;;;24.44;57.98;99438.34;5046305;28;20049;-68
2021/06/25 04:00:23;;;;;;;25.92;8.52;;;;;;;24.45;58.31;99425.66;5039617;28;20479;-67
2021/06/25 04:02:49;;;;;;;24.80;9.50;;;;;;;24.43;58.67;99422.44;5039848;28;20051;-68
2021/06/25 04:05:15;;;;;;;23.85;10.27;;;;;;;24.31;58.85;99425.88;5046953;28;20525;-65
2021/06/25 04:07:42;;;;;;;43.72;11.57;;;;;;;24.48;58.48;99430.50;5036406;28;20030;-68
2021/06/25 04:10:10;;;;;;;30.30;9.40;;;;;;;24.16;59.20;99436.72;5033037;28;20029;-68
2021/06/25 04:12:37;;;;;;;33.55;9.55;;;;;;;24.22;59.54;99435.78;5051024;28;20053;-65
2021/06/25 04:15:03;;;;;;;30.02;9.85;;;;;;;24.24;59.95;99433.31;5038711;28;20079;-67
2021/06/25 04:17:29;;;;;;;29.45;9.85;;;;;;;24.51;59.12;99440.28;5051362;28;20044;-67
2021/06/25 04:19:54;;;;;;;31.00;9.65;;;;;;;24.47;59.19;99439.53;5051351;28;20052;-67
2021/06/25 04:22:20;;;;;;;19.73;8.98;;;;;;;24.27;60.13;99448.00;5040808;28;20416;-67
2021/06/25 04:24:47;;;;;;;29.02;9.05;;;;;;;24.22;60.76;99441.50;5047978;28;20136;-68
2021/06/25 04:27:13;;;;;;;38.83;10.52;;;;;;;24.35;60.39;99440.91;5051413;28;20059;-68
2021/06/25 04:29:38;;;;;;;34.78;10.73;;;;;;;24.53;60.27;99441.47;5051261;28;20467;-68
2021/06/25 04:32:05;;;;;;;27.13;11.68;;;;;;;24.63;59.84;99431.09;5051305;28;20032;-66
2021/06/25 04:34:30;;;;;;;37.33;12.38;;;;;;;24.77;59.21;99441.53;5051085;28;20403;-66
2021/06/25 04:36:56;;;;;;;35.08;11.40;;;;;;;24.92;59.17;99438.44;5049660;28;20024;-65
2021/06/25 04:39:21;;;;;;;29.13;12.50;;;;;;;25.05;58.77;99439.44;5049995;28;20438;-66
2021/06/25 04:41:47;;;;;;;29.48;10.35;;;;;;;25.25;57.95;99430.09;5050485;28;20557;-65
2021/06/25 04:44:12;;;;;;;33.38;11.50;;;;;;;25.37;57.92;99429.44;5051114;28;20116;-66
2021/06/25 04:46:38;;;;;;;34.05;11.25;;;;;;;25.55;57.35;99428.31;5045869;28;20072;-66
2021/06/25 04:49:04;;;;;;;45.03;15.20;;;;;;;25.71;57.42;99429.66;5047761;28;20029;-66
2021/06/25 04:51:30;;;;;;;31.67;11.48;;;;;;;25.73;57.36;99427.94;5048898;28;20112;-66
2021/06/25 04:53:55;;;;;;;33.13;13.30;;;;;;;25.92;56.66;99432.03;5049030;28;20080;-68
2021/06/25 04:56:21;;;;;;;34.05;13.25;;;;;;;25.99;56.33;99430.28;5049309;28;20024;-67
2021/06/25 04:58:47;;;;;;;28.98;11.18;;;;;;;26.11;54.54;99426.75;5048913;28;20415;-67
2021/06/25 05:01:13;;;;;;;29.17;10.38;;;;;;;26.08;54.84;99433.38;5048999;28;20087;-65
2021/06/25 05:03:40;;;;;;;34.33;11.00;;;;;;;26.12;55.35;99442.69;5050716;28;20037;-65
2021/06/25 05:06:06;;;;;;;51.13;14.52;;;;;;;26.16;54.87;99434.00;5046469;28;20025;-66
2021/06/25 05:08:31;;;;;;;38.33;12.82;;;;;;;26.19;55.39;99431.09;5043451;28;20479;-66
2021/06/25 05:10:57;;;;;;;28.30;10.90;;;;;;;26.16;54.89;99426.22;5050667;28;20098;-66
2021/06/25 05:13:22;;;;;;;47.90;12.00;;;;;;;26.17;54.78;99429.91;5050677;28;20489;-65
2021/06/25 05:15:48;;;;;;;39.00;11.70;;;;;;;26.24;54.04;99428.94;5050616;28;20021;-65
2021/06/25 05:18:16;;;;;;;42.08;11.65;;;;;;;26.30;54.29;99430.84;5050135;28;20068;-65
2021/06/25 05:20:43;;;;;;;53.22;13.25;;;;;;;26.26;54.64;99430.13;5049648;28;20051;-65
2021/06/25 05:23:09;;;;;;;30.70;12.73;;;;;;;26.19;55.91;99422.50;5048332;28;20267;-66
2021/06/25 05:25:35;;;;;;;37.20;12.85;;;;;;;26.41;55.50;99426.94;5047148;28;20033;-65
2021/06/25 05:28:01;;;;;;;35.05;11.63;;;;;;;26.47;55.25;99420.22;5043809;28;20036;-66
2021/06/25 05:30:26;;;;;;;37.35;11.18;;;;;;;26.66;54.17;99408.31;5039304;28;20533;-67
2021/06/25 05:32:52;;;;;;;22.52;9.50;;;;;;;26.63;53.26;99405.09;5049389;28;20032;-68
2021/06/25 05:35:17;;;;;;;36.35;10.60;;;;;;;26.81;53.39;99409.56;5049959;28;20175;-67
2021/06/25 05:37:43;;;;;;;21.25;9.68;;;;;;;26.92;53.68;99409.31;5050428;28;20040;-69
2021/06/25 05:40:09;;;;;;;40.78;10.02;;;;;;;26.96;53.77;99398.56;5048879;28;20021;-65
2021/06/25 05:42:34;;;;;;;30.92;9.82;;;;;;;27.00;53.77;99392.72;5050170;28;20024;-65
2021/06/25 05:45:00;;;;;;;34.17;9.80;;;;;;;27.21;53.03;99384.78;5050238;28;20021;-67
2021/06/25 05:47:26;;;;;;;26.85;10.55;;;;;;;27.24;53.24;99384.69;5048477;28;20029;-69
2021/06/25 05:49:51;;;;;;;31.05;11.52;;;;;;;27.33;52.95;99386.88;5051192;28;20122;-66
2021/06/25 05:52:17;;;;;;;21.98;9.52;;;;;;;27.35;52.70;99383.56;5045081;28;20029;-66
2021/06/25 05:54:42;;;;;;;30.42;9.73;;;;;;;27.39;51.79;99385.09;5056837;28;20021;-66
2021/06/25 05:57:08;;;;;;;31.20;9.70;;;;;;;27.58;51.15;99389.09;5056577;28;20029;-64
2021/06/25 05:59:34;;;;;;;24.17;11.18;;;;;;;27.71;49.74;99394.06;5055830;28;20285;-66
2021/06/25 06:01:59;;;;;;;29.35;9.27;;;;;;;27.65;50.86;99387.28;5056347;28;20079;-66
2021/06/25 06:04:25;;;;;;;25.45;9.93;;;;;;;27.77;50.30;99383.63;5047347;28;20024;-66
2021/06/25 06:06:51;;;;;;;27.25;10.73;;;;;;;27.78;49.73;99381.56;5056464;28;20029;-64
2021/06/25 06:09:16;;;;;;;25.98;10.20;;;;;;;27.73;51.39;99374.28;5055380;28;20033;-66
2021/06/25 06:11:41;;;;;;;32.53;10.57;;;;;;;27.93;50.36;99376.19;5056524;28;20040;-67
2021/06/25 06:35:39;;;;;;;31.92;10.05;;;;;;;28.90;48.82;99369.38;5146957;27;21209;-68
2021/06/25 06:38:05;;;;;;;28.52;11.10;;;;;;;29.09;48.24;99360.94;5134277;27;20131;-69
2021/06/25 06:40:32;;;;;;;21.95;9.85;;;;;;;29.12;46.65;99365.75;5121156;28;20373;-69
2021/06/25 06:42:58;;;;;;;34.28;10.18;;;;;;;29.00;47.44;99364.50;5123896;28;20072;-70
2021/06/25 06:45:25;;;;;;;28.88;10.85;;;;;;;29.06;47.63;99364.72;5123723;28;20046;-68
2021/06/25 06:47:50;;;;;;;37.03;11.27;;;;;;;29.16;47.40;99357.00;5125854;27;20537;-68
2021/06/25 06:50:16;;;;;;;27.17;11.45;;;;;;;29.21;46.68;99357.19;5125867;27;20028;-70
2021/06/25 06:52:44;;;;;;;28.85;9.80;;;;;;;29.25;46.22;99349.22;5120690;27;20026;-69
2021/06/25 06:55:11;;;;;;;28.50;10.40;;;;;;;29.37;46.32;99347.53;5123626;28;20036;-70
2021/06/25 06:57:38;;;;;;;29.00;11.23;;;;;;;29.56;45.80;99347.72;5126526;28;20045;-69
2021/06/25 07:00:06;;;;;;;26.13;10.27;;;;;;;29.52;45.12;99342.09;5122106;27;20031;-70
2021/06/25 07:02:33;;;;;;;31.60;10.00;;;;;;;29.65;44.00;99344.09;5126331;28;20385;-71
2021/06/25 07:04:58;;;;;;;25.38;9.85;;;;;;;29.72;43.79;99343.00;5127461;27;20035;-71
2021/06/25 07:07:24;;;;;;;26.33;10.27;;;;;;;29.73;45.45;99342.53;5127883;28;20019;-70
2021/06/25 07:09:49;;;;;;;35.05;9.45;;;;;;;29.88;43.36;99339.09;5144486;27;20084;-72
2021/06/25 07:12:14;;;;;;;35.42;10.38;;;;;;;30.00;43.12;99335.31;5137131;27;20015;-71
2021/06/25 07:14:40;;;;;;;34.45;10.88;;;;;;;29.95;43.01;99339.59;5140991;27;20034;-71
2021/06/25 07:17:05;;;;;;;25.52;9.43;;;;;;;30.06;42.44;99332.66;5127767;27;20075;-72
2021/06/25 07:19:31;;;;;;;22.08;9.07;;;;;;;30.18;42.39;99328.06;5128054;28;20469;-71
2021/06/25 07:21:56;;;;;;;30.65;11.07;;;;;;;30.21;42.26;99333.66;5127437;28;20023;-72
2021/06/25 07:24:22;;;;;;;24.33;8.52;;;;;;;30.20;42.40;99332.06;5138295;27;20035;-71
2021/06/25 07:26:47;;;;;;;25.88;9.38;;;;;;;30.42;42.21;99333.25;5130254;27;20031;-70
2021/06/25 07:29:16;;;;;;;42.30;11.35;;;;;;;30.49;42.60;99332.94;5127767;28;20032;-73
2021/06/25 07:31:42;;;;;;;27.50;9.38;;;;;;;30.61;41.59;99326.25;5125700;27;20511;-71
2021/06/25 07:34:07;;;;;;;31.20;10.80;;;;;;;30.65;43.10;99332.72;5127302;28;20047;-72
2021/06/25 07:36:33;;;;;;;29.40;9.55;;;;;;;30.82;43.02;99329.50;5113951;27;20027;-72
2021/06/25 07:38:58;;;;;;;34.28;11.05;;;;;;;31.12;40.89;99317.50;5112343;28;20508;-76
2021/06/25 07:41:24;;;;;;;38.08;10.80;;;;;;;31.23;42.35;99326.50;5113658;28;20020;-72
2021/06/25 07:43:49;;;;;;;25.83;10.73;;;;;;;31.18;43.11;99316.38;5112225;28;20585;-73
2021/06/25 07:46:15;;;;;;;27.20;10.38;;;;;;;31.57;41.82;99312.16;5112085;28;20027;-72
2021/06/25 07:48:40;;;;;;;25.15;9.23;;;;;;;31.62;39.34;99314.41;5113470;28;20035;-71
2021/06/25 07:51:07;;;;;;;35.95;10.90;;;;;;;31.51;40.39;99312.84;5113301;28;20016;-72
2021/06/25 07:53:32;;;;;;;27.40;9.90;;;;;;;31.79;39.65;99309.06;5113614;28;20046;-74
2021/06/25 07:55:58;;;;;;;37.58;9.35;;;;;;;31.85;39.30;99310.03;5113417;28;20032;-72
2021/06/25 07:58:23;;;;;;;56.15;9.73;;;;;;;32.04;40.27;99304.97;5113261;28;20442;-71
2021/06/25 08:00:49;;;;;;;29.02;9.65;;;;;;;32.17;39.08;99290.31;5111948;28;20042;-71
2021/06/25 08:03:14;;;;;;;28.73;9.15;;;;;;;32.26;39.89;99298.13;5111493;28;20085;-70
2021/06/25 08:05:40;;;;;;;45.20;10.52;;;;;;;32.49;37.49;99292.88;5113182;28;20110;-71
2021/06/25 08:08:07;;;;;;;30.20;9.00;;;;;;;32.51;37.90;99293.19;5113123;28;20032;-71
2021/06/25 08:10:34;;;;;;;32.42;9.82;;;;;;;32.55;36.21;99290.13;5113106;28;20032;-71
2021/06/25 08:13:00;;;;;;;31.45;9.98;;;;;;;32.73;36.49;99289.19;5113039;28;20114;-71
2021/06/25 08:15:26;;;;;;;32.70;9.45;;;;;;;32.73;35.40;99289.19;5112806;28;20026;-71
2021/06/25 08:17:51;;;;;;;32.75;9.43;;;;;;;32.82;35.29;99279.63;5111764;28;20027;-71
2021/06/25 08:20:17;;;;;;;30.50;8.60;;;;;;;32.98;36.78;99273.38;5112798;28;20115;-70
2021/06/25 08:22:43;;;;;;;30.08;9.95;;;;;;;33.07;36.83;99278.31;5112933;28;20024;-73
2021/06/25 08:25:09;;;;;;;28.55;9.05;;;;;;;33.36;35.83;99278.81;5113013;28;20091;-70
2021/06/25 08:27:34;;;;;;;29.50;10.10;;;;;;;33.47;36.06;99276.16;5111569;28;20034;-72
2021/06/25 08:30:00;;;;;;;36.03;9.68;;;;;;;33.44;36.38;99263.47;5113162;28;20039;-70
2021/06/25 08:32:25;;;;;;;29.63;9.15;;;;;;;33.70;35.86;99268.66;5112545;28;20024;-73
2021/06/25 08:34:51;;;;;;;39.17;9.57;;;;;;;33.73;35.50;99263.97;5111014;28;20110;-74
2021/06/25 08:37:16;;;;;;;29.00;9.30;;;;;;;33.84;35.63;99255.44;5111215;28;20457;-72
2021/06/25 08:39:42;;;;;;;27.70;9.45;;;;;;;34.09;33.44;99261.13;5112842;28;20027;-70
2021/06/25 08:42:08;;;;;;;32.50;8.73;;;;;;;33.96;33.61;99259.31;5112415;28;20051;-72
2021/06/25 08:44:37;;;;;;;31.35;9.77;;;;;;;34.09;33.99;99249.50;5112745;28;20459;-71
2021/06/25 08:47:04;;;;;;;33.42;9.00;;;;;;;34.19;33.59;99248.09;5111485;28;20036;-72
2021/06/25 08:49:32;;;;;;;31.95;8.90;;;;;;;34.26;33.90;99253.44;5111181;28;20032;-71
2021/06/25 08:51:58;;;;;;;32.85;8.18;;;;;;;34.32;32.69;99247.72;5112323;28;20028;-72
2021/06/25 08:54:23;;;;;;;43.47;9.82;;;;;;;34.49;33.39;99245.03;5112374;28;20027;-71
2021/06/25 08:56:49;;;;;;;33.97;9.20;;;;;;;34.50;32.21;99243.75;5112445;28;20031;-72
2021/06/25 08:59:19;;;;;;;38.53;10.43;;;;;;;34.38;31.48;99244.91;5110719;28;20096;-72
2021/06/25 09:01:50;;;;;;;33.13;8.40;;;;;;;34.32;33.19;99241.13;5112158;28;20111;-73
2021/06/25 09:04:46;;;;;;;42.05;9.32;;;;;;;34.60;33.23;99241.53;5111755;28;20515;-72
2021/06/25 09:07:12;;;;;;;35.83;9.60;;;;;;;34.74;32.57;99248.53;5103302;28;20051;-72
2021/06/25 09:09:46;;;;;;;27.35;7.80;;;;;;;34.94;32.45;99241.13;5110616;28;20031;-72
2021/06/25 09:12:20;;;;;;;38.45;9.40;;;;;;;34.97;32.67;99240.09;5111959;28;20122;-71
2021/06/25 09:15:08;;;;;;;30.60;7.65;;;;;;;35.26;29.79;99235.41;5110272;28;20390;-72
2021/06/25 09:17:51;;;;;;;34.60;9.43;;;;;;;35.13;30.63;99238.72;5110553;28;20063;-72
2021/06/25 09:20:31;;;;;;;43.42;8.30;;;;;;;35.23;31.07;99228.53;5110339;28;20032;-72
2021/06/25 09:22:57;;;;;;;35.75;8.93;;;;;;;35.30;30.00;99235.16;5110193;28;20027;-70
2021/06/25 09:25:23;;;;;;;24.27;8.63;;;;;;;35.31;29.51;99234.66;5110617;28;20046;-70
2021/06/25 09:27:56;;;;;;;43.05;8.77;;;;;;;35.46;31.80;99237.44;5111555;28;20028;-69
2021/06/25 09:30:23;;;;;;;47.53;9.18;;;;;;;35.74;30.77;99233.22;5109996;28;20042;-71
2021/06/25 09:32:49;;;;;;;28.58;9.00;;;;;;;35.79;30.24;99226.63;5111325;28;20038;-73
2021/06/25 09:35:21;;;;;;;37.15;8.27;;;;;;;35.75;29.83;99218.13;5111593;28;20038;-73
2021/06/25 09:37:49;;;;;;;30.23;7.20;;;;;;;35.90;29.66;99211.34;5111413;28;20381;-73
2021/06/25 09:40:16;;;;;;;47.47;10.35;;;;;;;36.10;30.04;99208.34;5111162;28;20019;-74
2021/06/25 09:42:44;;;;;;;38.15;10.68;;;;;;;35.95;29.32;99211.41;5111192;28;20100;-75
2021/06/25 09:45:17;;;;;;;35.80;8.68;;;;;;;35.84;30.44;99206.31;5111034;28;20119;-75
2021/06/25 09:47:53;;;;;;;38.28;9.43;;;;;;;35.96;30.15;99206.38;5111194;28;20026;-73
2021/06/25 09:50:21;;;;;;;25.23;8.43;;;;;;;36.22;29.54;99208.41;5109825;28;20027;-71
2021/06/25 09:52:55;;;;;;;34.88;9.32;;;;;;;36.27;29.33;99215.59;5111115;28;20373;-72
2021/06/25 09:55:25;;;;;;;29.58;8.32;;;;;;;36.31;28.94;99213.22;5111227;28;20085;-72
2021/06/25 09:58:42;;;;;;;34.28;9.15;;;;;;;36.38;28.03;99206.91;5110672;28;20075;-72
2021/06/25 10:04:02;;;;;;;40.40;8.45;;;;;;;36.34;28.05;99200.53;5102089;28;20040;-72
2021/06/25 10:06:36;;;;;;;38.97;7.68;;;;;;;36.47;27.00;99197.94;5111212;28;20023;-72
2021/06/25 10:09:02;;;;;;;28.60;7.55;;;;;;;36.72;26.98;99191.69;5112087;28;20071;-72
2021/06/25 10:11:30;;;;;;;28.90;6.90;;;;;;;36.76;25.91;99195.16;5111044;28;20055;-72
2021/06/25 10:13:58;;;;;;;41.97;9.10;;;;;;;36.75;26.67;99191.44;5110675;28;20031;-72
2021/06/25 10:16:25;;;;;;;32.50;7.78;;;;;;;37.07;25.64;99185.47;5109017;28;20042;-72
2021/06/25 10:18:55;;;;;;;33.42;9.60;;;;;;;37.30;26.43;99190.50;5109090;28;20122;-73
2021/06/25 10:21:25;;;;;;;32.88;9.07;;;;;;;37.39;25.25;99190.25;5113486;28;20050;-72
2021/06/25 10:23:53;;;;;;;31.33;7.25;;;;;;;37.37;26.17;99187.06;5110571;28;20531;-72
2021/06/25 10:26:20;;;;;;;32.30;6.90;;;;;;;37.39;25.23;99186.53;5110220;28;20038;-72
2021/06/25 10:28:51;;;;;;;30.30;9.02;;;;;;;37.24;24.33;99187.59;5109059;28;20032;-72
2021/06/25 10:31:20;;;;;;;26.40;7.10;;;;;;;37.26;24.93;99179.09;5109851;28;20026;-72
2021/06/25 10:33:46;;;;;;;26.83;6.55;;;;;;;37.41;23.83;99180.94;5110483;28;20388;-72
2021/06/25 10:36:13;;;;;;;37.03;7.70;;;;;;;37.63;24.43;99177.28;5109217;28;20040;-73
2021/06/25 10:38:43;;;;;;;34.28;7.57;;;;;;;37.89;23.91;99176.97;5110306;28;20036;-72
2021/06/25 10:41:11;;;;;;;31.00;6.55;;;;;;;37.90;23.58;99180.66;5109280;28;20024;-72
2021/06/25 10:43:49;;;;;;;36.22;9.25;;;;;;;37.87;25.18;99179.59;5108915;28;20043;-72
2021/06/25 10:46:24;;;;;;;44.13;10.50;;;;;;;38.00;24.63;99170.31;5121261;28;20031;-72
2021/06/25 10:48:53;;;;;;;29.50;7.88;;;;;;;38.19;22.65;99166.78;5110443;28;20096;-72
2021/06/25 10:51:25;;;;;;;36.13;8.90;;;;;;;38.23;23.14;99163.59;5098357;28;20020;-72
2021/06/25 10:54:19;;;;;;;45.95;8.45;;;;;;;38.14;23.30;99168.44;5110361;28;20035;-72
2021/06/25 10:56:48;;;;;;;29.25;7.68;;;;;;;38.12;23.53;99164.44;5099667;28;20565;-72
2021/06/25 10:59:26;;;;;;;25.92;7.50;;;;;;;38.25;22.33;99163.84;5110262;28;20038;-72
2021/06/25 11:01:55;;;;;;;32.00;7.10;;;;;;;38.22;22.75;99159.91;5100160;28;20115;-72
2021/06/25 11:04:30;;;;;;;33.80;7.32;;;;;;;38.60;22.72;99157.38;5109882;28;20118;-72
2021/06/25 11:06:58;;;;;;;39.60;9.77;;;;;;;38.81;22.54;99153.25;5109992;28;20035;-72
2021/06/25 11:09:25;;;;;;;30.52;7.65;;;;;;;38.93;22.40;99151.06;5110206;28;20036;-72
2021/06/25 11:12:15;;;;;;;39.90;6.90;;;;;;;39.02;21.67;99156.56;5113766;28;20062;-72
2021/06/25 11:14:41;;;;;;;31.20;8.57;;;;;;;38.72;21.35;99157.28;5114062;28;20032;-72
2021/06/25 11:17:06;;;;;;;28.90;7.25;;;;;;;38.62;21.61;99143.00;5112557;28;20496;-72
2021/06/25 11:19:37;;;;;;;27.95;6.53;;;;;;;38.73;21.56;99150.91;5113824;28;20152;-73
2021/06/25 11:22:03;;;;;;;34.97;6.70;;;;;;;38.82;21.19;99138.09;5111079;28;20161;-72
2021/06/25 11:24:54;;;;;;;27.65;7.82;;;;;;;38.95;21.22;99137.50;5112870;28;20035;-72
2021/06/25 11:27:20;;;;;;;30.88;7.82;;;;;;;39.13;21.48;99138.19;5103942;28;20030;-72
2021/06/25 11:29:49;;;;;;;34.25;7.95;;;;;;;39.24;22.20;99131.44;5112200;28;20027;-72
2021/06/25 11:32:26;;;;;;;;;;;;;;;39.49;21.31;99132.31;5112765;28;20023;-72
2021/06/25 11:34:52;;;;;;;40.08;9.38;;;;;;;39.11;21.94;99135.00;5110695;28;19972;-72
2021/06/25 11:37:17;;;;;;;33.22;7.82;;;;;;;39.18;21.17;99134.41;5110327;28;20024;-72
2021/06/25 11:39:51;;;;;;;29.35;7.07;;;;;;;39.10;22.62;99133.41;5108102;28;20031;-72
2021/06/25 11:42:17;;;;;;;33.83;9.30;;;;;;;39.07;21.76;99129.44;5110930;28;20101;-72
2021/06/25 11:44:51;;;;;;;32.10;7.07;;;;;;;38.65;20.75;99132.38;5110826;28;20118;-72
2021/06/25 11:47:25;;;;;;;32.45;8.13;;;;;;;38.73;21.15;99117.97;5112325;28;20015;-73